Terminal Aerodrome Forecast
Issued by NWS Wilmington, OH

Current Version | Previous Version | Graphics & Text | Print | Product List | Glossary On
Versions: 1 2 3 4 5 6 7 8 9 10 11 12 13 14 15 16 17 18 19 20 21 22 23 24
000
FTUS41 KILN 160200 AAA
TAFDAY
TAF AMD
KDAY 160218Z 1602/1624 15009KT P6SM VCSH BKN035 OVC080
     FM160300 16011KT P6SM OVC022
      TEMPO 1603/1604 -SHRA
     FM160700 18011KT P6SM OVC015
      TEMPO 1608/1611 -SHRA
     FM161100 21012KT 5SM BR OVC010
     FM161600 24014G22KT 5SM BR VCSH OVC012
     FM162100 26014G22KT P6SM OVC015=

USA.gov is the U.S. government's official web portal to all federal, state and local government web resources and services.